YPW weather

Public forecast

Using degrees Celsius for public forecast. Weather courtesy of forecast.io.

Current aviation weather report (METAR) for Powell River Airport

Report is more than 6 hours old.

Retrieved 2020/08/10 02:00 UTC (6 hours ago):

CYPW 100200Z 28006KT 250V320 25SM FEW050 FEW070 20/12 A3023 RMK SC1AC1 SC TR AC TR LAST STFD OBS NEXT OBS 101300 UTC SLP239 DENSITY ALT 900FT

Closest aviation forecast (TAF) to Powell River Airport

Forecast is more than 6 hours old.

Closest forecast is Comox Airport, 16.7 nm (31.0 km) WSW. Retrieved 2020-08-10 00:42 UTC (8 hours ago):

TAF CYQQ 092339Z 1000/1024 35008KT P6SM FEW040 BKN080 TEMPO 1000/1012 SCT080 FM101200 32010G20KT P6SM FEW020 BKN040 FM101600 34012KT P6SM FEW040 FM102100 35015KT P6SM SKC RMK NXT FCST BY 100600Z